Time;durP1;ratioP1;P1;durP2;ratioP2;P2;SDS_P1;SDS_P2;PMS_P1;PMS_P2;Temp;Humidity;BMP_temperature;BMP_pressure;BME280_temperature;BME280_humidity;BME280_pressure;Samples;Min_cycle;Max_cycle;Signal;HPM_P1;HPM_P2
2023/05/04 03:02:52;;;;;;;4.15;2.10;;;9.90;97.90;;;;;;6163276;22;1411255;-86
2023/05/04 03:05:18;;;;;;;4.38;2.10;;;9.90;97.90;;;;;;6253177;22;82027;-83
2023/05/04 03:07:44;;;;;;;5.10;2.25;;;9.80;98.00;;;;;;6224550;22;84862;-83
2023/05/04 03:10:10;;;;;;;5.07;2.13;;;9.70;98.10;;;;;;6252309;22;80914;-83
2023/05/04 03:12:35;;;;;;;6.10;2.28;;;9.70;98.50;;;;;;6251086;22;80428;-78
2023/05/04 03:15:01;;;;;;;4.65;2.47;;;9.60;98.50;;;;;;6252860;22;80774;-78
2023/05/04 03:17:27;;;;;;;6.57;2.90;;;9.60;98.40;;;;;;6251664;22;80658;-79
2023/05/04 03:19:52;;;;;;;5.65;2.65;;;9.60;98.20;;;;;;6252851;22;80782;-78
2023/05/04 03:22:18;;;;;;;6.22;2.40;;;9.60;98.20;;;;;;6252275;22;80572;-79
2023/05/04 03:24:44;;;;;;;4.30;2.53;;;9.60;98.40;;;;;;6252405;22;80909;-80
2023/05/04 03:27:09;;;;;;;4.65;2.40;;;9.50;98.80;;;;;;6251649;22;80851;-80
2023/05/04 03:29:35;;;;;;;5.50;2.55;;;9.50;99.40;;;;;;6224547;22;83088;-80
2023/05/04 03:32:01;;;;;;;5.80;2.53;;;9.50;99.50;;;;;;6235010;22;80406;-83
2023/05/04 03:34:26;;;;;;;4.65;2.85;;;9.40;99.70;;;;;;6229951;22;81343;-82
2023/05/04 03:36:52;;;;;;;5.70;2.75;;;9.40;99.90;;;;;;6231439;22;80466;-82
2023/05/04 03:39:18;;;;;;;8.65;2.97;;;9.40;99.90;;;;;;6231676;22;80165;-82
2023/05/04 03:41:44;;;;;;;6.35;2.85;;;9.40;99.90;;;;;;6228417;22;80555;-80
2023/05/04 03:44:09;;;;;;;6.38;3.10;;;9.40;99.80;;;;;;6225069;22;80947;-81
2023/05/04 03:46:35;;;;;;;6.15;3.10;;;9.40;99.90;;;;;;6223348;22;80561;-80
2023/05/04 03:49:01;;;;;;;7.60;3.45;;;9.30;99.90;;;;;;6223010;22;80763;-78
2023/05/04 03:51:27;;;;;;;7.38;3.20;;;9.30;99.90;;;;;;6222684;22;80677;-79
2023/05/04 03:53:52;;;;;;;6.88;3.35;;;9.30;99.90;;;;;;6222807;22;80670;-77
2023/05/04 03:56:18;;;;;;;6.88;3.35;;;9.30;99.90;;;;;;6222555;22;81559;-78
2023/05/04 03:58:44;;;;;;;6.82;3.20;;;9.30;99.90;;;;;;6222524;22;80534;-80
2023/05/04 04:01:09;;;;;;;5.65;2.70;;;9.30;99.90;;;;;;6220526;22;80729;-79
2023/05/04 04:03:35;;;;;;;6.18;3.42;;;9.30;99.90;;;;;;6188206;22;81641;-78
2023/05/04 04:06:04;;;;;;;9.57;4.28;;;9.40;99.90;;;;;;6191599;22;80777;-78
2023/05/04 04:08:30;;;;;;;7.82;3.70;;;9.30;99.90;;;;;;6192040;22;80690;-78
2023/05/04 04:10:56;;;;;;;6.97;3.33;;;9.40;99.90;;;;;;6191791;22;80759;-79
2023/05/04 04:13:22;;;;;;;6.13;3.17;;;9.40;99.90;;;;;;6191415;22;81756;-79
2023/05/04 04:15:49;;;;;;;9.98;3.60;;;9.40;99.90;;;;;;6191897;22;81174;-78
2023/05/04 04:18:15;;;;;;;7.32;3.40;;;9.40;99.90;;;;;;6192485;22;80508;-83
2023/05/04 04:20:40;;;;;;;6.22;3.50;;;9.50;99.90;;;;;;6166891;22;80500;-82
2023/05/04 04:23:06;;;;;;;5.50;3.30;;;9.50;99.90;;;;;;6192736;22;82224;-82
2023/05/04 04:25:32;;;;;;;7.78;3.40;;;9.60;99.90;;;;;;6192615;22;81294;-81
2023/05/04 04:27:58;;;;;;;5.85;2.88;;;9.90;99.90;;;;;;6165520;22;83084;-83
2023/05/04 04:30:24;;;;;;;6.80;3.00;;;10.30;99.90;;;;;;6193124;22;80492;-82
2023/05/04 04:32:49;;;;;;;5.50;3.20;;;10.80;98.10;;;;;;6192398;22;81886;-82
2023/05/04 04:35:15;;;;;;;6.07;2.35;;;11.20;95.70;;;;;;6191829;22;81512;-84
2023/05/04 04:37:41;;;;;;;7.60;2.42;;;11.80;95.00;;;;;;6164709;22;82913;-81
2023/05/04 04:40:07;;;;;;;4.05;2.10;;;12.30;92.80;;;;;;6191989;22;80613;-80
2023/05/04 04:42:33;;;;;;;6.38;2.92;;;12.70;90.90;;;;;;6190759;22;80777;-81
2023/05/04 04:44:59;;;;;;;6.03;2.42;;;13.10;89.40;;;;;;6192284;22;80675;-80
2023/05/04 04:47:25;;;;;;;4.38;2.42;;;13.40;87.60;;;;;;6191324;22;80691;-81
2023/05/04 04:49:51;;;;;;;7.82;2.50;;;13.80;86.50;;;;;;6191706;22;80662;-82
2023/05/04 04:52:17;;;;;;;4.65;2.63;;;14.40;83.10;;;;;;6192677;22;82185;-83
2023/05/04 04:54:44;;;;;;;8.93;2.72;;;14.60;80.40;;;;;;6192676;22;80581;-84
2023/05/04 04:57:10;;;;;;;5.43;2.33;;;15.10;78.90;;;;;;6192909;22;81046;-81
2023/05/04 04:59:36;;;;;;;6.18;2.45;;;15.60;76.90;;;;;;6191336;22;80654;-83
2023/05/04 05:02:03;;;;;;;7.68;2.42;;;16.50;75.30;;;;;;6190584;22;81367;-82
2023/05/04 05:04:28;;;;;;;7.45;3.22;;;17.10;72.10;;;;;;6192504;22;81514;-81
2023/05/04 05:06:54;;;;;;;9.00;3.53;;;17.20;70.70;;;;;;6192591;22;80387;-82
2023/05/04 05:09:20;;;;;;;8.48;3.38;;;18.00;69.00;;;;;;6191550;22;80203;-81
2023/05/04 05:11:46;;;;;;;7.25;3.33;;;18.80;67.10;;;;;;6188887;22;83269;-83
2023/05/04 05:14:12;;;;;;;6.85;3.03;;;19.80;62.40;;;;;;6190243;22;82686;-84
2023/05/04 05:16:37;;;;;;;5.55;3.05;;;20.40;62.30;;;;;;6189771;22;81846;-82
2023/05/04 05:19:03;;;;;;;7.50;2.42;;;21.20;59.80;;;;;;6189926;22;82347;-81
2023/05/04 05:21:29;;;;;;;7.43;2.60;;;21.90;57.80;;;;;;6188683;22;83441;-82
2023/05/04 05:23:55;;;;;;;7.85;2.60;;;22.60;55.60;;;;;;6191935;22;84027;-82
2023/05/04 05:26:21;;;;;;;3.30;2.40;;;22.90;55.10;;;;;;6189186;22;82205;-80
2023/05/04 05:28:46;;;;;;;6.20;2.95;;;22.80;52.10;;;;;;6188349;22;81844;-79
2023/05/04 05:31:12;;;;;;;5.47;3.03;;;22.10;53.20;;;;;;6185821;22;82616;-79
2023/05/04 05:33:39;;;;;;;7.60;3.08;;;21.70;53.80;;;;;;6188450;22;82413;-82
2023/05/04 05:36:05;;;;;;;8.23;3.60;;;22.20;54.70;;;;;;6188879;22;82159;-81
2023/05/04 05:38:31;;;;;;;8.77;4.10;;;23.10;52.10;;;;;;6190268;22;81694;-79
2023/05/04 05:40:57;;;;;;;6.05;3.85;;;23.20;52.70;;;;;;6188919;22;83582;-79
2023/05/04 05:43:22;;;;;;;6.82;3.60;;;23.40;52.30;;;;;;6163293;22;85993;-82
2023/05/04 05:45:48;;;;;;;6.88;3.55;;;23.90;52.40;;;;;;6189657;22;83221;-79
2023/05/04 05:48:13;;;;;;;7.15;4.22;;;24.00;50.80;;;;;;6190213;22;82318;-80
2023/05/04 05:50:39;;;;;;;7.13;3.50;;;24.50;51.00;;;;;;6190526;22;82981;-80
2023/05/04 05:53:05;;;;;;;7.07;3.70;;;25.10;50.30;;;;;;6187144;22;82183;-78
2023/05/04 05:55:31;;;;;;;6.10;3.65;;;25.50;48.90;;;;;;6186597;22;82182;-80
2023/05/04 05:57:56;;;;;;;6.55;4.90;;;25.60;48.80;;;;;;6161651;22;82329;-80
2023/05/04 06:00:23;;;;;;;8.63;3.40;;;25.90;48.10;;;;;;6186884;22;82705;-79
2023/05/04 06:02:49;;;;;;;8.65;4.15;;;26.10;48.10;;;;;;6188048;22;82694;-81
2023/05/04 06:05:15;;;;;;;4.80;3.72;;;26.20;47.70;;;;;;6184007;22;82278;-80
2023/05/04 06:07:41;;;;;;;6.78;3.67;;;26.80;46.50;;;;;;6187490;22;82727;-80
2023/05/04 06:10:07;;;;;;;5.82;2.95;;;26.90;47.00;;;;;;6185669;22;84332;-83
2023/05/04 06:12:33;;;;;;;10.40;3.33;;;27.50;46.70;;;;;;6185655;22;83349;-82
2023/05/04 06:14:59;;;;;;;5.47;3.38;;;27.70;44.70;;;;;;6161259;22;82837;-82
2023/05/04 06:17:24;;;;;;;8.73;3.88;;;27.80;44.70;;;;;;6157170;22;82956;-80
2023/05/04 06:19:50;;;;;;;9.15;3.25;;;27.60;44.40;;;;;;6189248;22;82264;-79
2023/05/04 06:22:16;;;;;;;5.63;2.85;;;28.00;43.90;;;;;;6189504;22;82898;-79
2023/05/04 06:24:42;;;;;;;8.43;3.03;;;27.80;44.10;;;;;;6190750;22;82159;-79
2023/05/04 06:27:08;;;;;;;11.10;3.78;;;27.60;43.50;;;;;;6192144;22;81340;-80
2023/05/04 06:29:37;;;;;;;31.67;4.53;;;28.00;44.40;;;;;;6190547;22;84004;-80
2023/05/04 06:32:02;;;;;;;25.08;4.32;;;28.60;42.90;;;;;;6189084;22;82666;-79
2023/05/04 06:34:28;;;;;;;11.65;3.00;;;28.80;42.80;;;;;;6189638;22;83546;-83
2023/05/04 06:36:54;;;;;;;5.53;3.47;;;29.90;43.10;;;;;;6190305;22;82333;-83
2023/05/04 06:39:20;;;;;;;7.43;4.00;;;31.70;40.80;;;;;;6190126;22;82963;-83
2023/05/04 06:41:45;;;;;;;6.53;3.05;;;32.50;40.30;;;;;;6185075;22;83171;-81
2023/05/04 06:44:11;;;;;;;5.45;3.28;;;32.50;39.60;;;;;;6190856;22;82081;-82
2023/05/04 06:46:36;;;;;;;4.63;2.95;;;32.30;38.50;;;;;;6191501;22;82188;-82
2023/05/04 06:49:03;;;;;;;5.95;3.17;;;32.40;38.30;;;;;;6164186;22;83523;-84
2023/05/04 06:51:29;;;;;;;4.78;3.72;;;33.30;38.40;;;;;;6191060;22;82149;-81
2023/05/04 06:53:55;;;;;;;4.47;2.90;;;33.00;37.20;;;;;;6189271;22;81939;-81
2023/05/04 06:56:22;;;;;;;6.30;3.35;;;32.40;38.30;;;;;;6185600;22;82584;-80
2023/05/04 06:58:51;;;;;;;7.10;3.85;;;32.80;38.00;;;;;;6189407;22;83342;-81
2023/05/04 07:01:16;;;;;;;4.30;2.95;;;33.70;38.30;;;;;;6189365;22;83538;-81
2023/05/04 07:03:42;;;;;;;5.47;3.25;;;34.30;37.20;;;;;;6191591;22;82247;-81
2023/05/04 07:06:08;;;;;;;6.05;5.25;;;35.00;36.60;;;;;;6191937;22;82205;-84
2023/05/04 07:08:34;;;;;;;5.18;3.13;;;35.00;36.40;;;;;;6191202;22;82967;-82
2023/05/04 07:11:00;;;;;;;5.15;4.65;;;34.70;36.60;;;;;;6191221;22;82308;-83
2023/05/04 07:13:26;;;;;;;5.03;2.83;;;34.60;35.70;;;;;;6191551;22;82515;-82
2023/05/04 07:15:51;;;;;;;4.28;3.85;;;34.80;36.00;;;;;;6192672;22;81482;-82
2023/05/04 07:18:17;;;;;;;3.97;2.72;;;34.80;35.30;;;;;;6191472;22;85285;-82
2023/05/04 07:20:43;;;;;;;5.38;3.30;;;35.60;35.90;;;;;;6188503;22;83150;-84
2023/05/04 07:23:09;;;;;;;6.00;5.03;;;35.90;34.70;;;;;;6190740;22;83575;-87
2023/05/04 07:25:35;;;;;;;4.95;3.33;;;36.40;33.80;;;;;;6189635;22;82490;-83
2023/05/04 07:28:00;;;;;;;4.95;3.67;;;36.70;33.50;;;;;;6187982;22;85366;-82
2023/05/04 07:30:26;;;;;;;6.50;5.85;;;36.60;34.00;;;;;;6188631;22;83523;-82
2023/05/04 07:32:52;;;;;;;4.30;3.00;;;36.90;33.20;;;;;;6187236;22;82685;-82
2023/05/04 07:35:18;;;;;;;5.88;3.00;;;37.10;33.10;;;;;;6188518;22;82259;-83
2023/05/04 07:37:44;;;;;;;5.55;4.07;;;36.60;34.30;;;;;;6189832;22;83559;-81
2023/05/04 07:40:10;;;;;;;4.93;4.20;;;36.80;32.90;;;;;;6190860;22;82747;-82
2023/05/04 07:42:36;;;;;;;4.75;3.78;;;36.60;33.70;;;;;;6190915;22;82275;-82
2023/05/04 07:45:02;;;;;;;5.05;4.55;;;37.60;33.70;;;;;;6191375;22;82386;-83
2023/05/04 07:47:28;;;;;;;5.53;3.65;;;38.30;33.10;;;;;;6162764;22;84619;-80
2023/05/04 07:49:53;;;;;;;9.68;4.20;;;37.90;32.80;;;;;;6188019;22;83918;-82
2023/05/04 07:52:19;;;;;;;5.25;4.03;;;37.60;31.50;;;;;;6187660;22;82475;-83
2023/05/04 07:54:45;;;;;;;7.53;5.40;;;37.50;32.10;;;;;;6187800;22;83093;-82
2023/05/04 07:57:10;;;;;;;6.10;4.88;;;37.10;33.30;;;;;;6190443;22;83469;-82
2023/05/04 07:59:36;;;;;;;4.60;3.75;;;37.80;32.40;;;;;;6190540;22;83052;-85
2023/05/04 08:02:02;;;;;;;5.47;4.97;;;37.80;32.40;;;;;;6189863;22;82323;-82
2023/05/04 08:04:28;;;;;;;8.02;7.32;;;37.60;32.20;;;;;;6189707;22;81550;-82
2023/05/04 08:06:54;;;;;;;5.25;4.75;;;37.10;32.50;;;;;;6189664;22;82741;-83
2023/05/04 08:09:20;;;;;;;5.75;4.75;;;37.40;32.40;;;;;;6190649;22;82358;-83
2023/05/04 08:11:46;;;;;;;6.00;5.03;;;38.00;33.20;;;;;;6190225;22;83490;-85
2023/05/04 08:14:11;;;;;;;8.48;7.68;;;39.00;32.00;;;;;;6190851;22;82352;-84
2023/05/04 08:16:38;;;;;;;5.57;4.95;;;39.60;31.60;;;;;;6190405;22;83342;-86
2023/05/04 08:19:05;;;;;;;5.22;4.72;;;39.70;31.70;;;;;;6187577;22;83505;-84
2023/05/04 08:21:31;;;;;;;8.02;7.18;;;39.80;32.00;;;;;;6190267;22;82137;-83
2023/05/04 08:23:56;;;;;;;5.72;4.70;;;40.10;31.90;;;;;;6191135;22;82178;-85
2023/05/04 08:26:23;;;;;;;5.38;4.85;;;40.50;32.00;;;;;;6188372;22;82644;-83
2023/05/04 08:28:48;;;;;;;6.80;4.97;;;41.00;30.40;;;;;;6188915;22;82767;-83
2023/05/04 08:31:15;;;;;;;6.50;5.03;;;40.90;31.10;;;;;;6188401;22;82775;-83
2023/05/04 08:33:41;;;;;;;5.63;4.97;;;40.70;31.10;;;;;;6190423;22;82284;-82
2023/05/04 08:36:08;;;;;;;8.38;6.55;;;40.70;31.20;;;;;;6188946;22;83505;-81
2023/05/04 08:38:34;;;;;;;7.53;6.10;;;40.80;31.20;;;;;;6187784;22;83748;-82
2023/05/04 08:41:03;;;;;;;6.35;5.72;;;41.20;31.90;;;;;;6190632;22;82068;-83
2023/05/04 08:43:29;;;;;;;6.35;5.47;;;40.30;30.10;;;;;;6190080;22;82575;-84
2023/05/04 08:45:55;;;;;;;8.40;6.60;;;40.80;30.90;;;;;;6190625;22;82730;-82
2023/05/04 08:48:21;;;;;;;6.53;5.25;;;40.20;30.70;;;;;;6190755;22;83116;-84
2023/05/04 08:50:47;;;;;;;6.97;6.25;;;40.40;30.70;;;;;;6189537;22;82180;-81
2023/05/04 08:53:14;;;;;;;6.40;5.75;;;40.50;31.10;;;;;;6190185;22;81519;-80
2023/05/04 08:55:42;;;;;;;6.28;5.63;;;40.50;30.80;;;;;;6188569;22;82861;-83
2023/05/04 08:58:12;;;;;;;6.30;5.32;;;40.80;30.00;;;;;;6190517;22;82355;-81
2023/05/04 09:00:38;;;;;;;8.32;6.60;;;41.20;30.20;;;;;;6189281;22;83160;-80
2023/05/04 09:03:06;;;;;;;6.85;6.18;;;41.70;29.80;;;;;;6188882;22;82646;-81
2023/05/04 09:05:33;;;;;;;8.75;6.28;;;41.80;30.00;;;;;;6190242;22;83450;-81
2023/05/04 09:07:58;;;;;;;7.68;6.90;;;41.70;29.80;;;;;;6189710;22;82726;-81
2023/05/04 09:10:24;;;;;;;7.72;6.93;;;41.30;29.80;;;;;;6190156;22;81953;-81
2023/05/04 09:12:54;;;;;;;7.72;6.80;;;41.60;29.90;;;;;;6188727;22;82195;-86
2023/05/04 09:15:20;;;;;;;6.43;5.55;;;41.60;30.70;;;;;;6191567;22;82390;-86
2023/05/04 09:18:02;;;;;;;6.03;5.05;;;42.20;30.10;;;;;;6189060;22;82895;-85
2023/05/04 09:20:28;;;;;;;7.38;6.65;;;42.70;30.00;;;;;;6192066;22;82511;-86
2023/05/04 09:23:08;;;;;;;9.13;6.63;;;42.50;29.80;;;;;;6191815;22;82294;-86
2023/05/04 09:25:46;;;;;;;9.77;5.78;;;42.80;30.10;;;;;;6191215;22;83248;-85
2023/05/04 09:28:12;;;;;;;6.03;5.53;;;42.10;29.80;;;;;;6191907;22;82315;-85
2023/05/04 09:30:37;;;;;;;6.70;5.63;;;41.70;29.90;;;;;;6190782;22;82454;-85
2023/05/04 09:33:03;;;;;;;7.40;6.28;;;41.70;30.80;;;;;;6164435;22;84025;-86
2023/05/04 09:35:29;;;;;;;9.23;6.65;;;41.70;30.80;;;;;;6192109;22;83021;-85
2023/05/04 09:37:56;;;;;;;6.32;5.70;;;41.80;30.20;;;;;;6186413;22;83586;-81
2023/05/04 09:40:34;;;;;;;6.78;6.13;;;41.60;29.90;;;;;;6188107;22;82356;-83
2023/05/04 09:43:00;;;;;;;6.75;5.70;;;41.50;30.40;;;;;;6192024;22;81448;-81
2023/05/04 09:45:38;;;;;;;7.45;6.75;;;41.10;30.00;;;;;;6191336;22;83023;-81
2023/05/04 09:48:15;;;;;;;7.63;5.80;;;40.70;30.80;;;;;;6191851;22;82275;-80
2023/05/04 09:50:53;;;;;;;6.40;5.80;;;40.60;30.60;;;;;;6191615;22;83144;-84
2023/05/04 09:53:24;;;;;;;5.90;5.18;;;40.60;31.00;;;;;;6191079;22;82285;-84
2023/05/04 09:55:57;;;;;;;9.38;7.82;;;40.40;31.00;;;;;;6192337;22;83334;-85
2023/05/04 09:58:24;;;;;;;6.63;5.18;;;39.70;31.70;;;;;;6191467;22;83642;-85
2023/05/04 10:00:52;;;;;;;6.15;5.15;;;39.10;32.40;;;;;;6190720;22;82200;-83
2023/05/04 10:03:19;;;;;;;6.15;5.10;;;38.50;31.70;;;;;;6190569;22;82302;-83
2023/05/04 10:05:45;;;;;;;6.47;5.03;;;36.90;33.90;;;;;;6191430;22;82929;-82
2023/05/04 10:08:12;;;;;;;9.77;4.82;;;35.70;34.70;;;;;;6192675;22;82139;-82
2023/05/04 10:10:38;;;;;;;9.10;4.28;;;34.20;35.50;;;;;;6191143;22;81936;-83
2023/05/04 10:13:04;;;;;;;7.28;4.57;;;32.90;36.50;;;;;;6191947;22;82317;-81
2023/05/04 10:15:31;;;;;;;6.38;3.83;;;31.30;40.00;;;;;;6190178;22;83800;-82
2023/05/04 10:18:20;;;;;;;5.40;4.43;;;30.20;39.20;;;;;;6191456;22;84042;-82
2023/05/04 10:21:14;;;;;;;5.35;3.92;;;29.30;43.20;;;;;;6189080;22;82258;-80
2023/05/04 10:24:05;;;;;;;7.30;4.35;;;28.30;42.70;;;;;;6190213;22;82254;-81
2023/05/04 10:26:53;;;;;;;5.30;3.22;;;27.80;43.40;;;;;;6189359;22;83008;-82
2023/05/04 10:29:21;;;;;;;5.32;3.25;;;27.20;45.20;;;;;;6191137;22;82430;-82
2023/05/04 10:31:47;;;;;;;5.32;3.25;;;26.60;46.30;;;;;;6190586;22;82685;-83
2023/05/04 10:34:23;;;;;;;7.55;3.92;;;26.00;46.20;;;;;;6162492;22;81893;-82
2023/05/04 10:36:49;;;;;;;4.55;3.25;;;25.70;49.10;;;;;;6187886;22;83034;-83
2023/05/04 10:39:19;;;;;;;5.88;3.58;;;25.50;48.70;;;;;;6161077;22;85448;-82
2023/05/04 10:42:05;;;;;;;7.13;4.40;;;25.30;49.20;;;;;;6188144;22;83134;-84
2023/05/04 10:44:47;;;;;;;5.95;3.95;;;25.20;50.40;;;;;;6189482;22;82325;-82
2023/05/04 10:47:12;;;;;;;;;;;25.00;50.10;;;;;;6162198;22;85227;-81
2023/05/04 10:49:38;;;;;;;5.10;2.92;;;24.70;48.80;;;;;;6190274;22;82276;-81
2023/05/04 10:52:07;;;;;;;5.32;3.50;;;24.60;52.00;;;;;;6188436;22;82218;-80
2023/05/04 10:54:34;;;;;;;6.70;5.03;;;24.90;52.50;;;;;;6187921;22;82376;-78
2023/05/04 10:57:09;;;;;;;5.28;3.80;;;25.00;51.80;;;;;;6188379;22;83665;-77
2023/05/04 10:59:35;;;;;;;6.13;3.60;;;24.80;50.10;;;;;;6187553;22;82549;-78
2023/05/04 11:02:01;;;;;;;5.22;3.92;;;24.80;51.80;;;;;;6187874;22;82315;-78
2023/05/04 11:04:28;;;;;;;3.55;2.83;;;24.70;53.10;;;;;;6188977;22;82041;-77
2023/05/04 11:06:58;;;;;;;4.65;2.88;;;24.80;51.30;;;;;;6188296;22;84489;-78
2023/05/04 11:09:25;;;;;;;4.82;2.53;;;24.80;51.00;;;;;;6188566;22;83679;-78
2023/05/04 11:11:53;;;;;;;4.82;2.67;;;24.60;51.60;;;;;;6188561;22;82109;-79
2023/05/04 11:14:27;;;;;;;6.93;3.50;;;24.60;51.40;;;;;;6187017;22;82125;-79
2023/05/04 11:17:04;;;;;;;7.13;2.85;;;24.50;51.30;;;;;;6188152;22;83025;-78
2023/05/04 11:19:30;;;;;;;5.35;2.75;;;24.50;50.70;;;;;;6185126;22;82884;-79
2023/05/04 11:21:56;;;;;;;4.93;3.50;;;24.50;54.00;;;;;;6187925;22;82395;-79
2023/05/04 11:24:22;;;;;;;5.65;2.67;;;24.40;53.90;;;;;;6161712;22;81397;-79
2023/05/04 11:26:48;;;;;;;4.72;3.05;;;24.40;51.40;;;;;;6188668;22;81967;-80
2023/05/04 11:29:14;;;;;;;4.90;2.88;;;24.50;51.00;;;;;;6187898;22;82622;-82
2023/05/04 11:31:40;;;;;;;4.97;2.25;;;24.70;51.70;;;;;;6186658;22;83298;-81
2023/05/04 11:34:06;;;;;;;3.95;2.63;;;24.60;50.80;;;;;;6187569;22;82203;-83
2023/05/04 11:36:38;;;;;;;5.28;2.03;;;24.30;53.40;;;;;;6188703;22;83653;-83
2023/05/04 11:39:05;;;;;;;4.25;2.25;;;24.40;51.50;;;;;;6188088;22;82847;-81
2023/05/04 11:41:32;;;;;;;4.13;1.83;;;24.30;53.30;;;;;;6160475;22;82713;-80
2023/05/04 11:43:59;;;;;;;2.95;1.52;;;24.30;50.50;;;;;;6187603;22;82246;-80
2023/05/04 11:46:26;;;;;;;3.13;1.75;;;24.30;52.20;;;;;;6185778;22;83154;-79
2023/05/04 11:48:51;;;;;;;3.30;2.03;;;24.10;51.10;;;;;;6189449;22;81857;-78
2023/05/04 11:51:21;;;;;;;3.50;1.33;;;24.10;52.80;;;;;;6189514;22;82245;-82
2023/05/04 11:53:47;;;;;;;5.22;1.88;;;24.10;52.40;;;;;;6162863;22;82286;-79
2023/05/04 11:56:12;;;;;;;4.13;2.72;;;24.20;54.10;;;;;;6188812;22;84563;-81
2023/05/04 11:58:38;;;;;;;2.90;1.83;;;24.20;53.30;;;;;;6188968;22;84276;-82
2023/05/04 12:01:04;;;;;;;5.45;2.63;;;24.20;53.20;;;;;;6189122;22;82311;-82
2023/05/04 12:03:31;;;;;;;3.58;1.73;;;24.30;53.50;;;;;;6189279;22;81853;-81
2023/05/04 12:05:57;;;;;;;5.53;2.00;;;24.40;52.10;;;;;;6189525;22;83511;-82
2023/05/04 12:08:26;;;;;;;3.85;1.65;;;24.40;52.60;;;;;;6188608;22;82459;-81
2023/05/04 12:11:15;;;;;;;4.47;1.33;;;24.40;51.30;;;;;;6161754;22;82779;-82
2023/05/04 12:13:43;;;;;;;5.40;1.40;;;24.50;52.30;;;;;;6163184;22;81587;-81
2023/05/04 12:16:19;;;;;;;3.75;1.60;;;24.60;51.20;;;;;;6188560;22;82330;-82
2023/05/04 12:18:46;;;;;;;3.05;1.75;;;24.60;52.40;;;;;;6160814;22;84660;-86
2023/05/04 12:21:17;;;;;;;3.15;1.58;;;24.60;50.70;;;;;;6187849;22;83333;-83
2023/05/04 12:23:44;;;;;;;3.53;1.30;;;24.60;52.50;;;;;;6162193;22;82384;-81
2023/05/04 12:26:11;;;;;;;3.70;1.60;;;24.70;53.10;;;;;;6162249;22;85371;-79
2023/05/04 12:28:38;;;;;;;4.88;1.15;;;24.70;53.10;;;;;;6162105;22;84943;-80
2023/05/04 12:31:05;;;;;;;2.90;1.63;;;24.60;49.10;;;;;;6188645;22;82185;-82
2023/05/04 12:33:32;;;;;;;2.78;1.27;;;24.60;52.30;;;;;;6188665;22;82040;-83
2023/05/04 12:36:01;;;;;;;2.60;1.40;;;24.70;49.90;;;;;;6161203;22;84805;-82
2023/05/04 12:38:28;;;;;;;5.28;0.98;;;24.60;49.70;;;;;;6189225;22;83668;-81
2023/05/04 12:40:54;;;;;;;2.50;1.70;;;24.50;51.70;;;;;;6188615;22;82151;-81
2023/05/04 12:43:22;;;;;;;3.85;1.30;;;24.50;48.70;;;;;;6189082;22;82077;-81
2023/05/04 12:45:51;;;;;;;6.93;1.50;;;24.50;49.30;;;;;;6188136;22;84279;-81
2023/05/04 12:48:19;;;;;;;4.30;1.17;;;24.60;52.20;;;;;;6188469;22;83434;-81
2023/05/04 12:50:47;;;;;;;2.72;1.20;;;24.60;49.30;;;;;;6162016;22;82282;-83
2023/05/04 12:53:13;;;;;;;5.60;1.00;;;24.50;48.50;;;;;;6164134;22;82001;-81
2023/05/04 12:55:39;;;;;;;2.15;1.30;;;24.50;50.00;;;;;;6163760;22;83616;-81
2023/05/04 12:58:05;;;;;;;4.90;1.00;;;24.50;51.30;;;;;;6191092;22;83735;-81
2023/05/04 13:00:35;;;;;;;3.20;1.23;;;24.40;47.90;;;;;;6190531;22;81995;-80
2023/05/04 13:03:01;;;;;;;3.22;1.20;;;24.50;49.30;;;;;;6191235;22;81503;-82
2023/05/04 13:05:27;;;;;;;6.22;1.10;;;24.40;47.80;;;;;;6190452;22;82436;-81
2023/05/04 13:07:54;;;;;;;4.75;1.00;;;24.50;49.90;;;;;;6190991;22;82303;-81
2023/05/04 13:10:20;;;;;;;2.45;1.15;;;24.80;51.00;;;;;;6190256;22;83318;-80
2023/05/04 13:12:47;;;;;;;1.90;0.90;;;24.80;48.40;;;;;;6191332;22;82328;-80
2023/05/04 13:15:13;;;;;;;2.75;0.77;;;24.80;49.40;;;;;;6191041;22;83592;-81
2023/05/04 13:17:41;;;;;;;2.63;0.68;;;24.80;50.40;;;;;;6190427;22;83257;-80
2023/05/04 13:20:08;;;;;;;2.13;1.38;;;24.80;47.30;;;;;;6163876;22;82807;-81
2023/05/04 13:22:34;;;;;;;3.28;0.52;;;24.80;47.90;;;;;;6190867;22;82323;-81
2023/05/04 13:24:59;;;;;;;1.92;1.10;;;24.80;47.80;;;;;;6163607;22;84512;-83
2023/05/04 13:27:25;;;;;;;3.83;0.90;;;24.90;45.90;;;;;;6190578;22;81454;-81
2023/05/04 13:29:51;;;;;;;1.45;0.50;;;24.90;45.50;;;;;;6162816;22;82159;-81
2023/05/04 13:32:17;;;;;;;2.22;0.65;;;24.90;45.80;;;;;;6163511;22;82253;-81
2023/05/04 13:34:42;;;;;;;4.78;0.75;;;25.00;45.60;;;;;;6188771;22;83890;-81
2023/05/04 13:37:08;;;;;;;2.13;0.70;;;24.90;47.40;;;;;;6190095;22;84143;-81
2023/05/04 13:39:40;;;;;;;1.75;0.50;;;25.00;45.50;;;;;;6163542;22;82363;-82
2023/05/04 13:42:07;;;;;;;2.55;0.77;;;25.00;46.80;;;;;;6190378;22;82420;-81
2023/05/04 13:44:33;;;;;;;3.67;1.10;;;25.00;45.40;;;;;;6190447;22;82482;-82
2023/05/04 13:47:02;;;;;;;1.95;0.30;;;24.90;46.40;;;;;;6189913;22;82267;-80
2023/05/04 13:49:30;;;;;;;3.60;0.63;;;24.80;42.40;;;;;;6190545;22;82264;-80
2023/05/04 13:51:57;;;;;;;1.67;0.63;;;24.70;44.40;;;;;;6190766;22;81589;-82
2023/05/04 13:54:22;;;;;;;2.65;1.23;;;24.60;47.90;;;;;;6162948;22;84479;-83
2023/05/04 13:56:49;;;;;;;3.15;0.98;;;24.70;47.70;;;;;;6162428;22;84882;-79
2023/05/04 13:59:14;;;;;;;1.83;0.70;;;24.80;47.30;;;;;;6164052;22;83323;-81
2023/05/04 14:01:41;;;;;;;1.75;0.63;;;24.80;45.00;;;;;;6191909;22;82200;-79
2023/05/04 14:04:06;;;;;;;5.32;0.68;;;24.70;46.20;;;;;;6164829;22;84156;-79
2023/05/04 14:06:32;;;;;;;4.15;1.10;;;24.60;44.60;;;;;;6164733;22;84406;-81
2023/05/04 14:08:59;;;;;;;2.05;0.63;;;24.50;44.70;;;;;;6165127;22;83286;-81
2023/05/04 14:11:25;;;;;;;1.52;0.50;;;24.50;44.60;;;;;;6165216;22;82409;-81
2023/05/04 14:13:52;;;;;;;1.85;0.57;;;24.60;46.30;;;;;;6164929;22;85231;-80
2023/05/04 14:16:18;;;;;;;2.17;0.63;;;24.70;48.60;;;;;;6191229;22;81944;-82
2023/05/04 14:18:44;;;;;;;2.55;1.00;;;24.70;46.20;;;;;;6164665;22;82413;-80
2023/05/04 14:21:09;;;;;;;1.60;0.95;;;24.80;45.30;;;;;;6164771;22;82285;-79
2023/05/04 14:23:36;;;;;;;3.00;0.95;;;24.90;47.40;;;;;;6163607;22;85796;-80
2023/05/04 14:26:02;;;;;;;2.72;0.63;;;24.90;45.20;;;;;;6163430;22;84947;-82
2023/05/04 14:28:29;;;;;;;4.22;1.15;;;24.90;45.20;;;;;;6191576;22;82210;-80
2023/05/04 14:30:56;;;;;;;2.28;0.52;;;24.80;47.30;;;;;;6190669;22;82304;-80
2023/05/04 14:33:22;;;;;;;4.28;0.70;;;24.70;47.00;;;;;;6190527;22;82455;-83
2023/05/04 14:35:48;;;;;;;2.58;0.80;;;24.60;45.90;;;;;;6164256;22;84190;-80
2023/05/04 14:38:13;;;;;;;1.80;0.98;;;24.40;46.20;;;;;;6190945;22;82080;-81
2023/05/04 14:40:39;;;;;;;1.73;0.63;;;24.40;47.00;;;;;;6191492;22;81847;-81
2023/05/04 14:43:05;;;;;;;1.23;0.52;;;24.40;46.80;;;;;;6192643;22;82677;-82
2023/05/04 14:45:32;;;;;;;3.88;0.80;;;24.30;46.20;;;;;;6192254;22;83450;-81
2023/05/04 14:47:58;;;;;;;2.00;0.68;;;24.30;46.70;;;;;;6190650;22;83054;-83
2023/05/04 14:50:24;;;;;;;1.75;0.85;;;24.40;47.20;;;;;;6193574;22;81963;-82
2023/05/04 14:52:49;;;;;;;1.88;0.95;;;24.40;48.80;;;;;;6192078;22;82425;-83
2023/05/04 14:55:15;;;;;;;1.90;1.20;;;24.40;46.40;;;;;;6189106;22;82830;-85
2023/05/04 14:57:41;;;;;;;3.63;0.93;;;24.30;47.90;;;;;;6194584;22;82188;-85
2023/05/04 15:00:07;;;;;;;2.25;1.00;;;24.30;47.30;;;;;;6192200;22;82712;-85
2023/05/04 15:02:34;;;;;;;2.25;1.00;;;24.30;48.90;;;;;;6192458;22;82572;-82
2023/05/04 15:05:01;;;;;;;4.03;1.05;;;24.40;49.10;;;;;;6196441;22;83269;-81
2023/05/04 15:07:27;;;;;;;3.33;1.33;;;24.40;50.00;;;;;;6194404;22;82219;-82
2023/05/04 15:09:53;;;;;;;7.15;1.33;;;24.40;48.50;;;;;;6165221;22;82302;-84
2023/05/04 15:12:18;;;;;;;2.15;1.05;;;24.40;49.90;;;;;;6191116;22;83688;-84
2023/05/04 15:14:45;;;;;;;3.30;1.05;;;24.40;48.80;;;;;;6192200;22;83552;-83
2023/05/04 15:17:10;;;;;;;4.22;0.90;;;24.30;49.60;;;;;;6165514;22;83293;-86
2023/05/04 15:19:37;;;;;;;2.17;1.02;;;24.30;49.00;;;;;;6164999;22;82039;-83
2023/05/04 15:22:03;;;;;;;5.05;1.48;;;24.30;50.20;;;;;;6191727;22;83097;-85
2023/05/04 15:24:29;;;;;;;3.35;1.15;;;24.30;51.00;;;;;;6164866;22;86416;-84
2023/05/04 15:26:56;;;;;;;3.33;1.00;;;24.20;49.70;;;;;;6191978;22;82138;-84
2023/05/04 15:29:22;;;;;;;2.97;1.17;;;24.20;50.10;;;;;;6165986;22;81188;-86
2023/05/04 15:31:48;;;;;;;3.45;1.08;;;24.10;49.50;;;;;;6191212;22;83533;-84
2023/05/04 15:34:14;;;;;;;4.80;0.90;;;24.20;49.80;;;;;;6164595;22;84730;-85
2023/05/04 15:36:40;;;;;;;3.67;0.73;;;24.10;49.50;;;;;;6191053;22;82873;-84
2023/05/04 15:39:07;;;;;;;4.65;1.38;;;24.10;49.70;;;;;;6192397;22;82032;-83
2023/05/04 15:41:33;;;;;;;2.47;0.95;;;24.20;50.80;;;;;;6191154;22;83524;-84
2023/05/04 15:44:00;;;;;;;3.95;1.02;;;24.20;48.20;;;;;;6191357;22;83093;-85
2023/05/04 15:46:26;;;;;;;4.63;1.52;;;24.20;50.10;;;;;;6190463;22;82790;-87
2023/05/04 15:48:51;;;;;;;3.65;1.10;;;24.10;50.60;;;;;;6192506;22;82898;-84